createdAt,value
2018-12-25T00:01:32.399Z,3.06
2018-12-25T00:06:36.458Z,3.09
2018-12-25T00:11:41.875Z,3.07
2018-12-25T00:16:46.314Z,3.12
2018-12-25T00:21:50.339Z,3.18
2018-12-25T00:26:54.710Z,3.18
2018-12-25T00:31:59.287Z,3.20
2018-12-25T00:37:03.438Z,3.26
2018-12-25T00:42:07.704Z,3.27
2018-12-25T00:47:11.814Z,3.36
2018-12-25T00:52:17.695Z,3.45
2018-12-25T00:57:21.811Z,3.51
2018-12-25T01:02:26.107Z,3.45
2018-12-25T01:07:30.924Z,3.44
2018-12-25T01:12:35.329Z,3.38
2018-12-25T01:17:39.735Z,3.36
2018-12-25T01:22:43.830Z,3.37
2018-12-25T01:27:47.893Z,3.36
2018-12-25T01:38:26.622Z,3.34
2018-12-25T01:43:32.696Z,3.35
2018-12-25T01:48:37.087Z,3.38
2018-12-25T01:54:01.852Z,3.35
2018-12-25T01:59:26.569Z,3.55
2018-12-25T02:04:51.277Z,3.50
2018-12-25T02:09:55.652Z,3.57
2018-12-25T02:20:15.985Z,3.60
2018-12-25T02:25:20.067Z,3.65
2018-12-25T02:30:24.099Z,3.66
2018-12-25T02:35:28.127Z,3.67
2018-12-25T02:40:32.213Z,3.70
2018-12-25T02:45:55.605Z,3.73
2018-12-25T02:56:16.747Z,3.77
2018-12-25T03:01:41.452Z,3.76
2018-12-25T03:07:04.554Z,3.84
2018-12-25T03:12:08.635Z,3.78
2018-12-25T03:28:05.110Z,3.84
2018-12-25T03:38:26.925Z,3.80
2018-12-25T03:48:49.236Z,3.79
2018-12-25T03:53:55.069Z,3.82
2018-12-25T03:59:05.161Z,3.83
2018-12-25T04:04:09.275Z,3.84
2018-12-25T04:09:15.373Z,3.87
2018-12-25T04:14:19.472Z,3.88
2018-12-25T04:24:39.267Z,3.82
2018-12-25T04:29:44.984Z,3.79
2018-12-25T04:34:49.071Z,3.77
2018-12-25T04:45:29.395Z,3.80
2018-12-25T04:55:48.861Z,3.77
2018-12-25T05:00:54.618Z,3.70
2018-12-25T05:05:59.407Z,3.69
2018-12-25T05:11:03.444Z,3.64
2018-12-25T05:16:28.442Z,3.75
2018-12-25T05:26:47.903Z,3.65
2018-12-25T05:42:23.241Z,3.62
2018-12-25T05:47:46.269Z,3.60
2018-12-25T05:52:52.386Z,3.55
2018-12-25T05:58:15.503Z,3.56
2018-12-25T06:03:19.562Z,3.49
2018-12-25T06:08:23.611Z,3.48
2018-12-25T06:13:27.739Z,3.47
2018-12-25T06:18:52.551Z,3.52
2018-12-25T06:24:15.617Z,3.52
2018-12-25T06:29:21.404Z,3.58
2018-12-25T06:39:43.166Z,3.65
2018-12-25T06:45:07.979Z,3.74
2018-12-25T06:50:12.298Z,3.74
2018-12-25T06:55:37.075Z,3.76
2018-12-25T07:06:16.764Z,3.77
2018-12-25T07:11:20.988Z,3.83
2018-12-25T07:16:24.941Z,3.88
2018-12-25T07:21:28.966Z,3.89
2018-12-25T07:26:33.044Z,3.94
2018-12-25T07:31:37.066Z,3.87
2018-12-25T07:36:41.189Z,3.79
2018-12-25T07:41:45.178Z,3.81
2018-12-25T07:46:49.321Z,3.86
2018-12-25T07:51:53.714Z,3.89
2018-12-25T07:56:57.806Z,3.89
2018-12-25T08:02:01.896Z,3.95
2018-12-25T08:07:06.035Z,3.96
2018-12-25T08:12:10.064Z,4.02
2018-12-25T08:17:14.357Z,4.07
2018-12-25T08:22:18.409Z,4.18
2018-12-25T08:27:22.516Z,4.20
2018-12-25T08:32:26.640Z,4.27
2018-12-25T08:37:30.748Z,4.27
2018-12-25T08:42:34.812Z,4.33
2018-12-25T08:47:38.891Z,4.45
2018-12-25T08:52:43.414Z,4.42
2018-12-25T08:57:47.524Z,4.51
2018-12-25T09:02:51.758Z,4.57
2018-12-25T09:07:55.777Z,4.68
2018-12-25T09:12:59.932Z,4.72
2018-12-25T09:18:04.004Z,4.72
2018-12-25T09:23:08.114Z,4.70
2018-12-25T09:28:12.566Z,4.82
2018-12-25T09:33:16.691Z,4.69
2018-12-25T09:38:21.266Z,4.59
2018-12-25T09:43:26.000Z,4.57
2018-12-25T09:48:31.950Z,4.70
2018-12-25T09:53:36.211Z,4.72
2018-12-25T09:58:40.281Z,4.81
2018-12-25T10:03:44.971Z,4.83
2018-12-25T10:08:49.144Z,5.02
2018-12-25T10:13:53.238Z,5.19
2018-12-25T10:18:57.379Z,5.12
2018-12-25T10:24:01.596Z,5.40
2018-12-25T10:29:05.696Z,5.54
2018-12-25T10:34:09.825Z,5.60
2018-12-25T10:39:13.991Z,5.80
2018-12-25T10:44:21.221Z,6.34
2018-12-25T10:49:28.201Z,5.91
2018-12-25T10:54:35.344Z,5.68
2018-12-25T10:59:42.631Z,5.78
2018-12-25T11:04:50.276Z,5.74
2018-12-25T11:09:57.582Z,5.66
2018-12-25T11:15:01.835Z,5.64
2018-12-25T11:20:11.394Z,5.60
2018-12-25T11:25:11.759Z,5.54
2018-12-25T11:30:15.839Z,5.78
2018-12-25T11:35:19.948Z,5.73
2018-12-25T11:40:23.976Z,5.76
2018-12-25T11:45:28.080Z,5.71
2018-12-25T11:50:32.777Z,5.88
2018-12-25T11:55:38.641Z,5.87
2018-12-25T12:00:43.459Z,5.94
2018-12-25T12:05:49.019Z,5.62
2018-12-25T12:10:54.048Z,5.72
2018-12-25T12:15:59.152Z,5.85
2018-12-25T12:21:04.952Z,5.83
2018-12-25T12:37:02.611Z,5.84
2018-12-25T12:42:08.638Z,5.89
2018-12-25T12:52:29.209Z,5.96
2018-12-25T12:57:36.714Z,5.95
2018-12-25T13:02:40.759Z,5.92
2018-12-25T13:18:36.810Z,5.77
2018-12-25T13:23:41.064Z,5.80
2018-12-25T13:56:05.915Z,5.59
2018-12-25T14:01:12.070Z,5.61
2018-12-25T14:06:37.345Z,5.53
2018-12-25T14:12:08.282Z,5.53
2018-12-25T14:28:30.950Z,5.41
2018-12-25T14:33:45.885Z,5.35
2018-12-25T14:39:11.317Z,5.36
2018-12-25T14:44:17.409Z,5.34
2018-12-25T14:49:23.350Z,5.31
2018-12-25T15:00:05.794Z,5.39
2018-12-25T15:05:11.263Z,5.30
2018-12-25T15:10:21.801Z,5.35
2018-12-25T15:15:25.906Z,5.36
2018-12-25T15:20:29.960Z,5.35
2018-12-25T15:25:34.068Z,5.39
2018-12-25T15:30:38.175Z,5.32
2018-12-25T15:35:42.243Z,5.31
2018-12-25T15:40:46.315Z,5.40
2018-12-25T15:46:10.228Z,5.48
2018-12-25T15:57:11.594Z,5.58
2018-12-25T16:13:09.194Z,5.56
2018-12-25T16:29:06.784Z,5.49
2018-12-25T16:40:08.657Z,5.46
2018-12-25T16:56:25.477Z,5.48
2018-12-25T17:01:31.483Z,5.46
2018-12-25T17:06:35.513Z,5.50
2018-12-25T17:11:58.717Z,5.56
2018-12-25T17:17:04.512Z,5.55
2018-12-25T17:22:10.317Z,5.55
2018-12-25T17:27:16.063Z,5.48
2018-12-25T17:32:21.847Z,5.46
2018-12-25T17:37:29.521Z,5.48
2018-12-25T17:42:43.499Z,5.48
2018-12-25T17:53:24.356Z,5.48
2018-12-25T18:03:45.954Z,5.47
2018-12-25T18:08:50.311Z,5.44
2018-12-25T18:19:32.316Z,5.47
2018-12-25T18:24:38.103Z,5.39
2018-12-25T18:29:44.005Z,5.39
2018-12-25T18:34:50.184Z,5.50
2018-12-25T18:45:29.102Z,5.38
2018-12-25T18:50:34.973Z,5.37
2018-12-25T19:00:55.321Z,5.28
2018-12-25T19:05:59.410Z,5.24
2018-12-25T19:11:05.152Z,5.21
2018-12-25T19:21:43.635Z,5.28
2018-12-25T19:26:49.397Z,5.28
2018-12-25T19:31:55.140Z,5.20
2018-12-25T19:47:32.738Z,5.21
2018-12-25T19:52:38.481Z,5.21
2018-12-25T19:57:44.314Z,5.24
2018-12-25T20:03:13.951Z,5.24
2018-12-25T20:08:57.778Z,5.15
2018-12-25T20:14:41.604Z,5.32
2018-12-25T20:20:23.788Z,5.30
2018-12-25T20:26:07.631Z,5.24
2018-12-25T20:31:49.853Z,5.15
2018-12-25T20:37:33.660Z,5.29
2018-12-25T20:43:15.811Z,5.28
2018-12-25T20:48:58.010Z,5.30
2018-12-25T20:54:40.166Z,5.27
2018-12-25T21:11:53.796Z,5.28
2018-12-25T21:17:35.959Z,5.31
2018-12-25T21:23:18.663Z,5.34
2018-12-25T21:28:21.101Z,5.34
2018-12-25T21:50:38.922Z,5.40
2018-12-25T21:55:45.107Z,5.41
2018-12-25T22:12:02.379Z,5.49
2018-12-25T22:17:27.114Z,5.50
2018-12-25T22:22:32.881Z,5.59
2018-12-25T22:27:38.644Z,5.49
2018-12-25T22:33:12.775Z,5.64
2018-12-25T22:44:14.438Z,5.63
2018-12-25T22:54:36.171Z,5.69
2018-12-25T23:10:32.450Z,5.67
2018-12-25T23:20:54.478Z,5.73
2018-12-25T23:26:05.130Z,5.71
2018-12-25T23:36:25.835Z,5.72
2018-12-25T23:41:31.663Z,5.82
2018-12-25T23:46:56.614Z,5.77
2018-12-25T23:52:21.387Z,5.73
2018-12-25T23:57:27.517Z,5.75
